Time;durP1;ratioP1;P1;durP2;ratioP2;P2;SDS_P1;SDS_P2;PMS_P1;PMS_P2;Temp;Humidity;BMP_temperature;BMP_pressure;BME280_temperature;BME280_humidity;BME280_pressure;Samples;Min_cycle;Max_cycle;Signal;HPM_P1;HPM_P2
2022/10/22 00:01:39;;;;;;;;;;;;;;;20.94;55.10;100621.75;5136495;27;19927;-38
2022/10/22 00:04:05;;;;;;;;;;;;;;;20.95;55.09;100619.81;5138172;27;19927;-37
2022/10/22 00:06:30;;;;;;;;;;;;;;;20.95;55.17;100630.88;5137457;27;19976;-37
2022/10/22 00:08:56;;;;;;;;;;;;;;;20.94;55.29;100624.53;5134632;27;20299;-38
2022/10/22 00:11:22;;;;;;;;;;;;;;;20.95;55.17;100628.09;5136923;27;19937;-37
2022/10/22 00:13:47;;;;;;;;;;;;;;;20.94;55.03;100623.69;5135991;27;19934;-37
2022/10/22 00:16:13;;;;;;;;;;;;;;;20.95;55.26;100619.81;5140581;27;20324;-37
2022/10/22 00:18:38;;;;;;;;;;;;;;;20.94;55.09;100621.75;5138924;27;19930;-38
2022/10/22 00:21:04;;;;;;;;;;;;;;;20.94;55.01;100627.28;5122100;27;20344;-38
2022/10/22 00:23:30;;;;;;;;;;;;;;;20.94;55.10;100629.22;5141055;27;20018;-38
2022/10/22 00:25:55;;;;;;;;;;;;;;;20.95;55.04;100628.09;5144957;27;19931;-38
2022/10/22 00:28:21;;;;;;;;;;;;;;;20.94;55.04;100627.28;5124400;27;19980;-37
2022/10/22 00:30:46;;;;;;;;;;;;;;;20.94;55.15;100631.97;5119582;27;20287;-37
2022/10/22 00:33:12;;;;;;;;;;;;;;;20.94;55.04;100624.53;5137373;27;19927;-38
2022/10/22 00:35:38;;;;;;;;;;;;;;;20.94;55.12;100626.44;5137174;27;19939;-37
2022/10/22 00:38:03;;;;;;;;;;;;;;;20.94;55.21;100627.28;5135563;27;20315;-37
2022/10/22 00:40:29;;;;;;;;;;;;;;;20.94;54.97;100624.53;5135702;27;19923;-38
2022/10/22 00:42:54;;;;;;;;;;;;;;;20.94;55.09;100623.69;5118653;27;20351;-38
2022/10/22 00:45:23;;;;;;;;;;;;;;;20.94;55.16;100624.53;5134399;27;19931;-37
2022/10/22 00:47:53;;;;;;;;;;;;;;;20.95;55.11;100628.94;5134403;27;20027;-38
2022/10/22 00:50:21;;;;;;;;;;;;;;;20.94;55.09;100626.44;5138097;27;19966;-37
2022/10/22 00:52:47;;;;;;;;;;;;;;;20.94;55.16;100623.69;5138785;27;20410;-37
2022/10/22 00:55:13;;;;;;;;;;;;;;;20.94;54.91;100624.53;5136825;27;19927;-38
2022/10/22 00:57:38;;;;;;;;;;;;;;;20.94;55.18;100624.53;5118586;27;19930;-37
2022/10/22 01:00:04;;;;;;;;;;;;;;;20.94;55.17;100621.75;5137576;27;19991;-37
2022/10/22 01:02:30;;;;;;;;;;;;;;;20.94;55.02;100615.38;5135573;27;20069;-37
2022/10/22 01:04:55;;;;;;;;;;;;;;;20.94;55.10;100615.38;5139705;27;19932;-38
2022/10/22 01:07:21;;;;;;;;;;;;;;;20.94;55.00;100618.13;5138179;27;19926;-37
2022/10/22 01:09:49;;;;;;;;;;;;;;;20.93;55.01;100619.28;5118155;27;20341;-37
2022/10/22 01:12:22;;;;;;;;;;;;;;;20.93;55.04;100622.03;5134703;27;20022;-37
2022/10/22 01:15:07;;;;;;;;;;;;;;;20.93;54.98;100619.28;5132613;27;20066;-37
2022/10/22 01:20:24;;;;;;;;;;;;;;;20.94;55.04;100620.91;5163986;27;20396;-34
2022/10/22 01:22:54;;;;;;;;;;;;;;;20.94;55.04;100607.06;5133159;27;20016;-34
2022/10/22 01:25:36;;;;;;;;;;;;;;;20.93;54.90;100608.19;5149766;27;19976;-35
2022/10/22 01:28:13;;;;;;;;;;;;;;;20.94;55.01;100615.38;5132359;27;20410;-35
2022/10/22 01:30:39;;;;;;;;;;;;;;;20.93;55.15;100600.72;5154625;27;20393;-35
2022/10/22 01:33:05;;;;;;;;;;;;;;;20.93;55.00;100599.88;5157141;27;19924;-34
2022/10/22 01:35:33;;;;;;;;;;;;;;;20.93;54.99;100602.66;5153326;27;20350;-35
2022/10/22 01:38:05;;;;;;;;;;;;;;;20.93;54.93;100599.88;5131572;27;19950;-35
2022/10/22 01:40:30;;;;;;;;;;;;;;;20.93;55.04;100595.16;5130137;27;19986;-36
2022/10/22 01:42:58;;;;;;;;;;;;;;;20.93;55.03;100599.88;5149417;27;19954;-35
2022/10/22 01:45:23;;;;;;;;;;;;;;;20.92;55.03;100585.22;5151074;27;19958;-35
2022/10/22 01:47:59;;;;;;;;;;;;;;;20.92;54.93;100595.47;5150125;27;19942;-35
2022/10/22 01:50:28;;;;;;;;;;;;;;;20.93;55.04;100594.34;5148679;27;19966;-35
2022/10/22 01:53:13;;;;;;;;;;;;;;;20.93;55.00;100592.41;5150083;27;20477;-34
2022/10/22 01:55:50;;;;;;;;;;;;;;;20.92;54.90;100599.06;5147550;27;20002;-35
2022/10/22 01:58:35;;;;;;;;;;;;;;;20.93;55.04;100597.13;5154426;27;20018;-35
2022/10/22 02:01:06;;;;;;;;;;;;;;;20.92;55.00;100599.06;5134604;27;19945;-35
2022/10/22 02:03:35;;;;;;;;;;;;;;;20.93;54.99;100594.34;5149886;27;20279;-35
2022/10/22 02:06:02;;;;;;;;;;;;;;;20.92;55.04;100593.53;5150245;27;20021;-35
2022/10/22 02:08:29;;;;;;;;;;;;;;;20.92;55.05;100595.47;5149355;27;19931;-35
2022/10/22 02:10:55;;;;;;;;;;;;;;;20.92;54.95;100590.75;5151405;27;19954;-35
2022/10/22 02:13:22;;;;;;;;;;;;;;;20.92;55.04;100596.31;5151639;27;20367;-35
2022/10/22 02:15:48;;;;;;;;;;;;;;;20.92;55.00;100593.53;5140195;27;20019;-35
2022/10/22 02:18:13;;;;;;;;;;;;;;;20.93;55.05;100599.88;5138811;27;19934;-35
2022/10/22 02:20:39;;;;;;;;;;;;;;;20.92;54.87;100598.25;5119750;27;19923;-35
2022/10/22 02:23:05;;;;;;;;;;;;;;;20.92;55.09;100604.59;5141267;27;19973;-35
2022/10/22 02:25:31;;;;;;;;;;;;;;;20.92;55.02;100598.25;5142456;27;19924;-35
2022/10/22 02:28:01;;;;;;;;;;;;;;;20.92;55.02;100607.38;5144832;27;20358;-35
2022/10/22 02:30:27;;;;;;;;;;;;;;;20.92;54.94;100609.31;5119062;28;19971;-35
2022/10/22 02:33:01;;;;;;;;;;;;;;;20.92;54.92;100601.03;5111904;28;20397;-34
2022/10/22 02:35:27;;;;;;;;;;;;;;;20.92;54.91;100609.31;5124581;28;20345;-35
2022/10/22 02:37:53;;;;;;;;;;;;;;;20.92;54.93;100604.59;5108611;28;20394;-34
2022/10/22 02:40:18;;;;;;;;;;;;;;;20.91;54.99;100602.97;5105447;28;19923;-35
2022/10/22 02:42:45;;;;;;;;;;;;;;;20.92;54.99;100609.31;5121024;28;19985;-35
2022/10/22 02:45:10;;;;;;;;;;;;;;;20.92;54.89;100617.63;5121743;28;19970;-35
2022/10/22 02:47:36;;;;;;;;;;;;;;;20.92;54.88;100620.41;5126102;28;19923;-35
2022/10/22 02:50:01;;;;;;;;;;;;;;;20.92;55.08;100617.63;5128629;28;20097;-35
2022/10/22 02:52:33;;;;;;;;;;;;;;;20.91;54.99;100622.34;5123574;28;20032;-35
2022/10/22 02:54:58;;;;;;;;;;;;;;;20.92;54.93;100617.63;5127839;27;19931;-34
2022/10/22 02:57:24;;;;;;;;;;;;;;;20.91;54.87;100619.56;5124285;27;20410;-35
2022/10/22 02:59:49;;;;;;;;;;;;;;;20.92;55.05;100614.88;5102175;28;19927;-35
2022/10/22 03:02:15;;;;;;;;;;;;;;;20.92;54.93;100614.88;5126548;28;19923;-35
2022/10/22 03:04:40;;;;;;;;;;;;;;;20.92;55.08;100618.44;5122397;28;20324;-35
2022/10/22 03:07:06;;;;;;;;;;;;;;;20.91;55.02;100614.03;5126999;28;19924;-35
2022/10/22 03:09:32;;;;;;;;;;;;;;;20.92;54.94;100614.88;5126899;28;19950;-35
2022/10/22 03:11:57;;;;;;;;;;;;;;;20.91;54.91;100622.34;5126068;28;19930;-35
2022/10/22 03:14:23;;;;;;;;;;;;;;;20.92;54.93;100614.88;5127471;28;20275;-36
2022/10/22 03:16:48;;;;;;;;;;;;;;;20.91;54.96;100616.00;5125222;28;19939;-34
2022/10/22 03:19:14;;;;;;;;;;;;;;;20.91;55.04;100619.56;5126213;28;20279;-35
2022/10/22 03:21:41;;;;;;;;;;;;;;;20.91;54.89;100616.00;5108644;28;19930;-35
2022/10/22 03:24:09;;;;;;;;;;;;;;;20.91;55.05;100621.53;5103570;28;19998;-35
2022/10/22 03:26:35;;;;;;;;;;;;;;;20.91;54.95;100622.34;5108171;28;20010;-34
2022/10/22 03:29:00;;;;;;;;;;;;;;;20.91;54.93;100616.00;5127004;28;20015;-35
2022/10/22 03:31:26;;;;;;;;;;;;;;;20.91;54.91;100627.06;5126744;28;19931;-34
2022/10/22 03:33:52;;;;;;;;;;;;;;;20.92;55.00;100634.25;5126111;28;19954;-35
2022/10/22 03:36:17;;;;;;;;;;;;;;;20.91;54.96;100627.06;5126781;28;19927;-35
2022/10/22 03:38:43;;;;;;;;;;;;;;;20.91;55.05;100636.19;5103976;28;19931;-35
2022/10/22 03:41:08;;;;;;;;;;;;;;;20.90;54.94;100629.00;5124558;28;21168;-34
2022/10/22 03:43:34;;;;;;;;;;;;;;;20.91;54.97;100622.34;5126125;28;19924;-35
2022/10/22 03:46:00;;;;;;;;;;;;;;;20.91;54.99;100633.41;5126165;28;20002;-35
2022/10/22 03:48:26;;;;;;;;;;;;;;;20.91;54.91;100638.13;5099325;28;19939;-34
2022/10/22 03:50:51;;;;;;;;;;;;;;;20.91;54.87;100641.72;5127462;28;19931;-35
2022/10/22 03:53:17;;;;;;;;;;;;;;;20.91;54.93;100638.13;5126532;28;19923;-35
2022/10/22 03:55:42;;;;;;;;;;;;;;;20.90;54.88;100640.09;5122980;27;19931;-35
2022/10/22 03:58:08;;;;;;;;;;;;;;;20.91;54.88;100643.66;5126962;28;19928;-35
2022/10/22 04:00:33;;;;;;;;;;;;;;;20.92;54.94;100640.59;5126443;28;19924;-35
2022/10/22 04:02:59;;;;;;;;;;;;;;;20.91;54.92;100652.78;5125776;28;19930;-35
2022/10/22 04:05:25;;;;;;;;;;;;;;;20.91;55.10;100644.50;5123362;28;20278;-35
2022/10/22 04:07:50;;;;;;;;;;;;;;;20.92;54.94;100645.31;5122948;28;20055;-35
2022/10/22 04:10:16;;;;;;;;;;;;;;;20.90;54.90;100642.84;5120159;28;19942;-35
2022/10/22 04:12:41;;;;;;;;;;;;;;;20.90;54.94;100648.38;5126120;28;20060;-35
2022/10/22 04:15:07;;;;;;;;;;;;;;;20.91;54.87;100646.44;5122330;28;19923;-35
2022/10/22 04:17:34;;;;;;;;;;;;;;;20.90;55.13;100659.47;5122172;28;19924;-35
2022/10/22 04:19:59;;;;;;;;;;;;;;;20.90;54.90;100665.00;5127655;28;20023;-35
2022/10/22 04:22:25;;;;;;;;;;;;;;;20.90;54.94;100667.75;5126362;28;20435;-35
2022/10/22 04:24:50;;;;;;;;;;;;;;;20.91;54.86;100663.03;5128228;28;19923;-35
2022/10/22 04:27:21;;;;;;;;;;;;;;;20.90;54.98;100665.00;5125020;28;19936;-35
2022/10/22 04:29:46;;;;;;;;;;;;;;;20.90;55.00;100669.72;5126270;28;21123;-35
2022/10/22 04:32:12;;;;;;;;;;;;;;;20.90;54.96;100676.06;5119308;28;19927;-35
2022/10/22 04:34:37;;;;;;;;;;;;;;;20.91;54.85;100671.34;5125968;27;19930;-35
2022/10/22 04:37:03;;;;;;;;;;;;;;;20.90;55.11;100676.06;5123022;28;21474;-35
2022/10/22 04:39:29;;;;;;;;;;;;;;;20.90;54.89;100678.00;5125280;28;19931;-36
2022/10/22 04:41:55;;;;;;;;;;;;;;;20.90;54.95;100686.31;5122601;28;19930;-35
2022/10/22 04:44:20;;;;;;;;;;;;;;;20.90;54.81;100678.00;5125642;28;19931;-35
2022/10/22 04:46:46;;;;;;;;;;;;;;;20.89;55.02;100679.94;5122553;28;19923;-37
2022/10/22 04:49:12;;;;;;;;;;;;;;;20.89;54.97;100670.81;5101740;28;20027;-40
2022/10/22 04:51:38;;;;;;;;;;;;;;;20.89;54.89;100677.16;5126455;28;20086;-40
2022/10/22 04:54:03;;;;;;;;;;;;;;;20.90;55.05;100683.56;5104671;28;19923;-37
2022/10/22 04:56:29;;;;;;;;;;;;;;;20.90;55.03;100680.78;5123641;27;19931;-37
2022/10/22 04:58:57;;;;;;;;;;;;;;;20.90;54.97;100689.09;5123881;28;19931;-38
2022/10/22 05:01:23;;;;;;;;;;;;;;;20.90;54.85;100686.31;5122415;28;20047;-37
2022/10/22 05:03:49;;;;;;;;;;;;;;;20.90;54.94;100691.84;5104091;28;19931;-38
2022/10/22 05:06:15;;;;;;;;;;;;;;;20.90;54.92;100694.63;5121294;28;20014;-37
2022/10/22 05:08:42;;;;;;;;;;;;;;;20.90;54.94;100705.69;5104334;28;19930;-37
2022/10/22 05:11:15;;;;;;;;;;;;;;;20.89;54.85;100701.25;5124399;28;19923;-37
2022/10/22 05:13:41;;;;;;;;;;;;;;;20.89;55.02;100701.25;5107228;28;20010;-37
2022/10/22 05:16:07;;;;;;;;;;;;;;;20.90;54.92;100697.41;5122218;28;20274;-38
2022/10/22 05:18:34;;;;;;;;;;;;;;;20.90;55.06;100703.75;5105838;28;20019;-38
2022/10/22 05:21:00;;;;;;;;;;;;;;;20.90;54.88;100716.78;5127091;28;20030;-37
2022/10/22 05:23:25;;;;;;;;;;;;;;;20.89;54.81;100710.38;5128309;28;19931;-38
2022/10/22 05:25:51;;;;;;;;;;;;;;;20.90;55.05;100711.22;5125866;28;19931;-37
2022/10/22 05:28:16;;;;;;;;;;;;;;;20.89;54.90;100715.91;5125712;28;20322;-37
2022/10/22 05:30:51;;;;;;;;;;;;;;;20.90;54.94;100716.78;5124619;28;19930;-37
2022/10/22 05:33:16;;;;;;;;;;;;;;;20.90;54.85;100725.06;5123595;28;20397;-37
2022/10/22 05:35:48;;;;;;;;;;;;;;;20.89;55.02;100718.69;5123951;28;19932;-37
2022/10/22 05:38:14;;;;;;;;;;;;;;;20.90;54.93;100719.53;5126036;28;19980;-38
2022/10/22 05:40:39;;;;;;;;;;;;;;;20.90;54.86;100730.63;5102655;28;19974;-38
2022/10/22 05:43:05;;;;;;;;;;;;;;;20.90;54.88;100725.91;5121608;28;19932;-38
2022/10/22 05:45:31;;;;;;;;;;;;;;;20.90;54.95;100727.84;5123921;28;20420;-37
2022/10/22 05:47:56;;;;;;;;;;;;;;;20.89;54.88;100727.00;5123379;28;19931;-37
2022/10/22 05:50:22;;;;;;;;;;;;;;;20.89;54.90;100731.72;5122900;28;19927;-37
2022/10/22 05:52:47;;;;;;;;;;;;;;;20.90;55.04;100734.19;5125896;28;20393;-37
2022/10/22 05:55:13;;;;;;;;;;;;;;;20.89;55.00;100735.28;5122225;27;19924;-37
2022/10/22 05:57:38;;;;;;;;;;;;;;;20.89;54.94;100740.00;5123612;27;19928;-38
2022/10/22 06:00:04;;;;;;;;;;;;;;;20.89;54.84;100743.59;5107297;28;19930;-37
2022/10/22 06:02:30;;;;;;;;;;;;;;;20.89;54.85;100748.31;5124584;28;20044;-37
2022/10/22 06:04:55;;;;;;;;;;;;;;;20.89;55.05;100751.09;5123640;27;19924;-37
2022/10/22 06:07:21;;;;;;;;;;;;;;;20.90;54.88;100755.53;5126768;28;19992;-37
2022/10/22 06:09:49;;;;;;;;;;;;;;;20.90;54.82;100755.53;5124846;28;19924;-37
2022/10/22 06:12:14;;;;;;;;;;;;;;;20.89;54.87;100751.09;5122456;28;19974;-37
2022/10/22 06:14:40;;;;;;;;;;;;;;;20.89;54.98;100753.84;5125353;28;19931;-37
2022/10/22 06:17:05;;;;;;;;;;;;;;;20.88;54.89;100750.25;5123580;28;20359;-37
2022/10/22 06:19:31;;;;;;;;;;;;;;;20.89;54.90;100757.44;5124893;28;19931;-37
2022/10/22 06:21:57;;;;;;;;;;;;;;;20.87;54.88;100754.16;5130653;28;20178;-37
2022/10/22 06:24:22;;;;;;;;;;;;;;;20.89;54.90;100768.50;5131112;28;20281;-37
2022/10/22 06:26:48;;;;;;;;;;;;;;;20.89;54.98;100767.69;5128530;28;19932;-37
2022/10/22 06:29:14;;;;;;;;;;;;;;;20.89;54.98;100776.00;5108334;28;19969;-37
2022/10/22 06:31:39;;;;;;;;;;;;;;;20.88;54.94;100777.94;5124552;28;19923;-37
2022/10/22 06:34:06;;;;;;;;;;;;;;;20.88;54.89;100780.72;5124508;28;19931;-37
2022/10/22 06:36:31;;;;;;;;;;;;;;;20.89;54.92;100784.31;5123575;28;20427;-37
2022/10/22 06:38:57;;;;;;;;;;;;;;;20.89;54.86;100789.84;5125787;28;19930;-37
2022/10/22 06:41:23;;;;;;;;;;;;;;;20.88;54.83;100794.56;5130054;28;19928;-38
2022/10/22 06:43:56;;;;;;;;;;;;;;;20.89;54.88;100798.13;5123795;28;19963;-37
2022/10/22 06:46:22;;;;;;;;;;;;;;;20.88;54.92;100800.09;5121949;28;20010;-37
2022/10/22 06:48:48;;;;;;;;;;;;;;;20.89;54.79;100800.91;5125379;28;19930;-37
2022/10/22 06:54:43;;;;;;;;;;;;;;;20.88;55.03;100821.41;5126325;27;20023;-37
2022/10/22 06:57:09;;;;;;;;;;;;;;;20.89;54.86;100825.81;5124564;28;19967;-37
2022/10/22 06:59:35;;;;;;;;;;;;;;;20.88;54.82;100827.75;5130008;28;19931;-37
2022/10/22 07:02:00;;;;;;;;;;;;;;;20.87;54.81;100834.44;5126363;28;20367;-37
2022/10/22 07:04:26;;;;;;;;;;;;;;;20.88;54.95;100835.25;5125923;28;19930;-37
2022/10/22 07:06:53;;;;;;;;;;;;;;;20.87;54.83;100828.91;5128121;28;20406;-37
2022/10/22 07:09:19;;;;;;;;;;;;;;;20.88;54.75;100835.25;5125343;28;20006;-36
2022/10/22 07:11:44;;;;;;;;;;;;;;;20.88;54.98;100838.84;5128376;28;19954;-38
2022/10/22 07:14:10;;;;;;;;;;;;;;;20.87;54.91;100839.97;5128130;28;20063;-37
2022/10/22 07:16:36;;;;;;;;;;;;;;;20.88;54.89;100849.91;5108530;28;19923;-37
2022/10/22 07:19:02;;;;;;;;;;;;;;;20.88;54.80;100854.63;5128759;28;19959;-38
2022/10/22 07:21:28;;;;;;;;;;;;;;;20.88;54.86;100858.22;5106779;28;20394;-37
2022/10/22 07:23:54;;;;;;;;;;;;;;;20.88;54.96;100852.69;5103784;28;19944;-37
2022/10/22 07:26:19;;;;;;;;;;;;;;;20.87;54.85;100859.34;5106954;28;20324;-38
2022/10/22 07:28:45;;;;;;;;;;;;;;;20.87;54.82;100862.13;5129549;28;19924;-38
2022/10/22 07:31:11;;;;;;;;;;;;;;;20.87;54.96;100870.41;5107431;28;19983;-37
2022/10/22 07:33:36;;;;;;;;;;;;;;;20.87;54.80;100873.19;5105134;28;20407;-37
2022/10/22 07:36:03;;;;;;;;;;;;;;;20.87;54.84;100869.59;5124983;28;19927;-37
2022/10/22 07:38:30;;;;;;;;;;;;;;;20.87;54.87;100864.06;5108016;28;20466;-37
2022/10/22 07:40:56;;;;;;;;;;;;;;;20.88;54.89;100877.59;5105873;28;19931;-37
2022/10/22 07:43:21;;;;;;;;;;;;;;;20.86;54.90;100874.31;5104936;28;19923;-38
2022/10/22 07:45:47;;;;;;;;;;;;;;;20.87;54.87;100880.66;5125526;28;20417;-37
2022/10/22 07:48:12;;;;;;;;;;;;;;;20.87;54.99;100883.44;5125460;28;19938;-37
2022/10/22 07:50:38;;;;;;;;;;;;;;;20.87;54.80;100886.19;5121186;28;20055;-37
2022/10/22 07:53:03;;;;;;;;;;;;;;;20.86;54.88;100890.91;5124565;28;20354;-37
2022/10/22 07:55:30;;;;;;;;;;;;;;;20.87;54.92;100894.50;5122549;28;19931;-37
2022/10/22 07:57:55;;;;;;;;;;;;;;;20.87;55.01;100897.28;5127773;28;19931;-38
2022/10/22 08:00:21;;;;;;;;;;;;;;;20.87;54.91;100898.09;5121996;28;19930;-38
2022/10/22 08:02:50;;;;;;;;;;;;;;;20.87;54.88;100900.88;5124895;28;19923;-37
2022/10/22 08:05:16;;;;;;;;;;;;;;;20.86;54.92;100904.75;5123401;28;20402;-37
2022/10/22 08:07:41;;;;;;;;;;;;;;;20.87;54.98;100914.72;5120046;28;19935;-37
2022/10/22 08:10:07;;;;;;;;;;;;;;;20.86;54.97;100915.84;5102344;28;19932;-37
2022/10/22 08:12:33;;;;;;;;;;;;;;;20.86;55.02;100921.38;5105984;28;19928;-37
2022/10/22 08:14:59;;;;;;;;;;;;;;;20.86;54.91;100926.91;5127830;28;19924;-37
2022/10/22 08:17:26;;;;;;;;;;;;;;;20.87;54.83;100927.72;5127425;28;19924;-37
2022/10/22 08:19:51;;;;;;;;;;;;;;;20.87;55.00;100938.78;5107699;28;19991;-37
2022/10/22 08:22:17;;;;;;;;;;;;;;;20.87;54.74;100941.56;5127294;28;19923;-37
2022/10/22 08:24:42;;;;;;;;;;;;;;;20.87;54.90;100942.38;5109126;28;20295;-37
2022/10/22 08:27:08;;;;;;;;;;;;;;;20.86;54.88;100946.28;5125492;28;19931;-37
2022/10/22 08:29:34;;;;;;;;;;;;;;;20.87;54.84;100939.63;5125771;27;19927;-37
2022/10/22 08:32:01;;;;;;;;;;;;;;;20.86;54.87;100949.03;5127012;27;20332;-37
2022/10/22 08:34:27;;;;;;;;;;;;;;;20.87;54.79;100944.34;5127530;28;20018;-37
2022/10/22 08:36:53;;;;;;;;;;;;;;;20.87;54.89;100958.16;5105757;28;19995;-37
2022/10/22 08:39:18;;;;;;;;;;;;;;;20.86;54.76;100942.69;5108250;28;20302;-37
2022/10/22 08:41:51;;;;;;;;;;;;;;;20.86;54.80;100954.59;5124991;28;19941;-36
2022/10/22 08:44:36;;;;;;;;;;;;;;;20.87;54.81;100953.47;5121848;28;20022;-37
2022/10/22 08:47:22;;;;;;;;;;;;;;;20.86;54.83;100962.88;5108387;28;19980;-37
2022/10/22 08:49:47;;;;;;;;;;;;;;;20.86;54.91;100962.88;5109348;28;19980;-37
2022/10/22 08:52:14;;;;;;;;;;;;;;;20.87;54.83;100955.41;5104723;28;19934;-37
2022/10/22 08:54:45;;;;;;;;;;;;;;;20.87;54.89;100961.75;5126801;28;20377;-37
2022/10/22 08:57:15;;;;;;;;;;;;;;;20.86;54.76;100967.59;5122615;28;19977;-37
2022/10/22 08:59:45;;;;;;;;;;;;;;;20.86;54.80;100965.66;5103691;28;20069;-37
2022/10/22 09:02:19;;;;;;;;;;;;;;;20.87;54.89;100972.00;5105303;28;20011;-37
2022/10/22 09:04:46;;;;;;;;;;;;;;;20.86;54.89;100971.19;5119000;28;19970;-37
2022/10/22 09:07:12;;;;;;;;;;;;;;;20.86;54.80;100971.19;5123905;28;19989;-37
2022/10/22 09:09:41;;;;;;;;;;;;;;;20.86;54.93;100982.25;5121726;28;19923;-36
2022/10/22 09:12:07;;;;;;;;;;;;;;;20.86;55.02;100984.22;5105363;28;19955;-37
2022/10/22 09:14:32;;;;;;;;;;;;;;;20.86;54.80;100984.22;5104899;28;20039;-37
2022/10/22 09:17:04;;;;;;;;;;;;;;;20.86;54.97;100990.56;5121716;28;19923;-37
2022/10/22 09:19:32;;;;;;;;;;;;;;;20.86;54.72;100986.97;5124662;28;20030;-39
2022/10/22 09:22:09;;;;;;;;;;;;;;;20.86;54.94;100986.97;5108311;28;19923;-37
2022/10/22 09:24:37;;;;;;;;;;;;;;;20.86;54.91;100996.09;5124118;28;19969;-37
2022/10/22 09:27:08;;;;;;;;;;;;;;;20.85;54.81;100994.44;5101639;28;20393;-37
2022/10/22 09:29:34;;;;;;;;;;;;;;;20.86;54.82;100989.75;5121834;28;19931;-37
2022/10/22 09:32:00;;;;;;;;;;;;;;;20.87;54.93;100994.16;5129013;27;19932;-37
2022/10/22 09:34:25;;;;;;;;;;;;;;;20.86;54.73;100995.28;5122887;28;19981;-37
2022/10/22 09:36:59;;;;;;;;;;;;;;;20.86;54.68;100992.50;5123210;28;19931;-37
2022/10/22 09:39:26;;;;;;;;;;;;;;;20.86;54.84;100996.09;5104074;28;20018;-37
2022/10/22 09:41:52;;;;;;;;;;;;;;;20.86;54.87;101003.59;5127951;28;19971;-37
2022/10/22 09:44:18;;;;;;;;;;;;;;;20.85;54.83;101005.50;5127992;28;19928;-37
2022/10/22 09:46:44;;;;;;;;;;;;;;;20.86;54.77;101006.34;5103798;28;20020;-37
2022/10/22 09:49:11;;;;;;;;;;;;;;;20.85;54.76;101002.72;5126669;28;19963;-37
2022/10/22 09:51:46;;;;;;;;;;;;;;;20.86;54.88;101006.34;5109310;28;20018;-37
2022/10/22 09:54:14;;;;;;;;;;;;;;;20.85;54.82;101011.03;5109085;28;19973;-38
2022/10/22 09:56:41;;;;;;;;;;;;;;;20.86;54.80;101011.88;5122490;28;19962;-36
2022/10/22 09:59:14;;;;;;;;;;;;;;;20.86;54.80;101011.88;5112485;28;20018;-36
2022/10/22 10:01:40;;;;;;;;;;;;;;;20.86;54.82;101014.66;5122837;28;20006;-37
2022/10/22 10:04:07;;;;;;;;;;;;;;;20.86;54.98;101026.56;5109920;28;20291;-37
2022/10/22 10:06:37;;;;;;;;;;;;;;;20.86;54.79;101023.78;5105785;28;19980;-37
2022/10/22 10:09:07;;;;;;;;;;;;;;;20.86;54.75;101020.19;5127525;28;19970;-37
2022/10/22 10:11:36;;;;;;;;;;;;;;;20.85;54.73;101024.88;5104099;28;19934;-37
2022/10/22 10:14:11;;;;;;;;;;;;;;;20.86;54.91;101034.84;5126387;28;20310;-37
2022/10/22 10:16:40;;;;;;;;;;;;;;;20.86;54.77;101036.81;5128130;28;20008;-36
2022/10/22 10:19:25;;;;;;;;;;;;;;;20.86;54.78;101040.41;5130063;28;20036;-37
2022/10/22 10:22:11;;;;;;;;;;;;;;;20.86;54.77;101042.34;5110520;28;19959;-37
2022/10/22 10:24:42;;;;;;;;;;;;;;;20.85;54.88;101052.56;5115110;28;19970;-37
2022/10/22 10:27:10;;;;;;;;;;;;;;;20.86;54.81;101053.41;5131301;28;19959;-37
2022/10/22 10:29:38;;;;;;;;;;;;;;;20.85;54.89;101044.25;5127606;28;20006;-37
2022/10/22 10:32:12;;;;;;;;;;;;;;;20.85;54.90;101060.88;5111383;28;19970;-36
2022/10/22 10:34:42;;;;;;;;;;;;;;;20.85;54.74;101055.31;5125301;28;20035;-37
2022/10/22 10:39:53;;;;;;;;;;;;;;;20.85;54.73;101063.63;5163544;27;20171;-34
2022/10/22 10:42:23;;;;;;;;;;;;;;;20.85;54.80;101074.69;5155019;27;20013;-35
2022/10/22 10:45:07;;;;;;;;;;;;;;;20.86;54.85;101064.47;5150846;27;19976;-35
2022/10/22 10:47:52;;;;;;;;;;;;;;;20.86;54.90;101072.78;5152164;27;19964;-34
2022/10/22 10:50:38;;;;;;;;;;;;;;;20.86;54.89;101070.03;5136113;27;20382;-35
2022/10/22 10:55:41;;;;;;;;;;;;;;;20.86;54.83;101070.84;5161245;27;19926;-34
2022/10/22 10:58:13;;;;;;;;;;;;;;;20.86;54.85;101070.03;5163017;27;20393;-34
2022/10/22 11:00:40;;;;;;;;;;;;;;;20.85;54.82;101071.94;5142974;27;20008;-34
2022/10/22 11:03:14;;;;;;;;;;;;;;;20.85;54.85;101062.81;5162880;27;19977;-34
2022/10/22 11:05:45;;;;;;;;;;;;;;;20.86;54.75;101081.09;5163259;27;19954;-34
2022/10/22 11:08:13;;;;;;;;;;;;;;;20.86;54.90;101081.09;5144132;27;20382;-35
2022/10/22 11:10:47;;;;;;;;;;;;;;;20.85;54.95;101071.94;5162520;27;20002;-35
2022/10/22 11:16:25;;;;;;;;;;;;;;;20.85;54.75;101096.03;5160383;27;19930;-35
2022/10/22 11:18:57;;;;;;;;;;;;;;;20.85;54.75;101084.94;5131866;27;19958;-34
2022/10/22 11:21:26;;;;;;;;;;;;;;;20.84;54.79;101078.59;5130126;27;20133;-34
2022/10/22 11:23:54;;;;;;;;;;;;;;;20.85;54.87;101090.50;5127676;27;20022;-34
2022/10/22 11:26:25;;;;;;;;;;;;;;;20.84;54.85;101084.13;5144657;27;20013;-34
2022/10/22 11:28:51;;;;;;;;;;;;;;;20.85;54.90;101084.94;5145917;27;19967;-34
2022/10/22 11:31:17;;;;;;;;;;;;;;;20.85;54.80;101085.78;5127510;27;19976;-35
2022/10/22 11:33:51;;;;;;;;;;;;;;;20.85;54.87;101084.94;5127153;27;19974;-34
2022/10/22 11:36:26;;;;;;;;;;;;;;;20.85;54.76;101087.72;5130547;27;19931;-34
2022/10/22 11:38:51;;;;;;;;;;;;;;;20.85;54.69;101076.66;5145030;27;20008;-34
2022/10/22 11:41:18;;;;;;;;;;;;;;;20.85;54.81;101082.19;5150810;27;19976;-35
2022/10/22 11:43:52;;;;;;;;;;;;;;;20.84;54.74;101086.91;5127728;27;20026;-34
2022/10/22 11:46:20;;;;;;;;;;;;;;;20.84;55.05;101075.81;5129938;27;20161;-35
2022/10/22 11:49:06;;;;;;;;;;;;;;;20.84;54.98;101078.59;5146685;27;20019;-34
2022/10/22 11:51:32;;;;;;;;;;;;;;;20.85;54.82;101084.94;5132015;27;19927;-34
2022/10/22 11:54:00;;;;;;;;;;;;;;;20.85;54.89;101090.50;5144908;27;20241;-34
2022/10/22 11:56:26;;;;;;;;;;;;;;;20.85;54.77;101082.19;5146496;27;20358;-34
2022/10/22 11:58:53;;;;;;;;;;;;;;;20.85;54.86;101076.66;5127950;27;20067;-35
2022/10/22 12:01:21;;;;;;;;;;;;;;;20.85;54.78;101074.69;5127394;27;19923;-34
2022/10/22 12:06:23;;;;;;;;;;;;;;;20.85;54.86;101073.88;5174290;27;19925;-34
2022/10/22 12:11:26;;;;;;;;;;;;;;;20.85;54.72;101073.88;5172097;27;19938;-35
2022/10/22 12:14:12;;;;;;;;;;;;;;;20.86;54.68;101072.78;5153730;27;20202;-34
2022/10/22 12:16:46;;;;;;;;;;;;;;;20.85;54.84;101065.56;5128155;27;19993;-34
2022/10/22 12:19:29;;;;;;;;;;;;;;;20.85;54.82;101071.09;5121655;27;19923;-34
2022/10/22 12:21:59;;;;;;;;;;;;;;;20.85;54.73;101068.34;5134987;27;20027;-34
2022/10/22 12:24:25;;;;;;;;;;;;;;;20.85;54.91;101071.09;5122780;27;19977;-34
2022/10/22 12:26:51;;;;;;;;;;;;;;;20.84;54.76;101072.22;5120354;27;19927;-34
2022/10/22 12:29:18;;;;;;;;;;;;;;;20.85;54.78;101071.09;5139217;27;20590;-34
2022/10/22 12:31:43;;;;;;;;;;;;;;;20.84;54.90;101064.75;5137040;27;20022;-34
2022/10/22 12:34:12;;;;;;;;;;;;;;;20.85;54.87;101060.03;5114250;28;20314;-35
2022/10/22 12:36:37;;;;;;;;;;;;;;;20.84;54.84;101058.41;5130320;27;19954;-34
2022/10/22 12:39:08;;;;;;;;;;;;;;;20.83;54.86;101063.09;5120158;27;20046;-34
2022/10/22 12:41:34;;;;;;;;;;;;;;;20.84;54.74;101056.44;5118840;27;19970;-34
2022/10/22 12:44:00;;;;;;;;;;;;;;;20.85;54.97;101063.63;5117056;27;19981;-34
2022/10/22 12:46:26;;;;;;;;;;;;;;;20.85;54.73;101051.72;5132021;27;19923;-39
2022/10/22 12:48:52;;;;;;;;;;;;;;;20.84;54.69;101053.69;5118735;27;19931;-37
2022/10/22 12:51:18;;;;;;;;;;;;;;;20.84;54.69;101061.97;5129026;27;19927;-39
2022/10/22 12:53:46;;;;;;;;;;;;;;;20.84;54.68;101056.44;5138893;27;19931;-39
2022/10/22 12:56:15;;;;;;;;;;;;;;;20.85;54.82;101046.19;5097581;27;20395;-37
2022/10/22 12:58:42;;;;;;;;;;;;;;;20.85;54.70;101043.44;5116672;27;20046;-39